createdAt,value
2019-06-01T00:03:25.388Z,81.10
2019-06-01T00:08:33.961Z,79.39
2019-06-01T00:13:39.519Z,80.82
2019-06-01T00:18:46.063Z,80.46
2019-06-01T00:23:52.947Z,79.52
2019-06-01T00:29:00.611Z,79.47
2019-06-01T00:34:06.261Z,79.84
2019-06-01T00:39:11.872Z,81.25
2019-06-01T00:44:20.612Z,81.33
2019-06-01T00:49:26.808Z,80.58
2019-06-01T00:54:33.437Z,81.59
2019-06-01T00:59:38.753Z,80.52
2019-06-01T01:04:44.339Z,81.46
2019-06-01T01:09:52.899Z,81.11
2019-06-01T01:14:58.674Z,79.74
2019-06-01T01:20:04.535Z,79.91
2019-06-01T01:25:09.884Z,80.41
2019-06-01T01:30:16.398Z,80.91
2019-06-01T01:35:22.255Z,81.59
2019-06-01T01:40:28.058Z,81.49
2019-06-01T01:45:33.302Z,80.86
2019-06-01T01:50:38.851Z,81.65
2019-06-01T01:55:44.711Z,81.95
2019-06-01T02:00:54.034Z,82.56
2019-06-01T02:05:59.054Z,82.50
2019-06-01T02:11:05.662Z,82.32
2019-06-01T02:16:11.661Z,82.69
2019-06-01T02:21:17.007Z,82.69
2019-06-01T02:26:22.358Z,80.93
2019-06-01T02:31:40.492Z,81.30
2019-06-01T02:36:34.742Z,81.98
2019-06-01T02:41:40.742Z,81.69
2019-06-01T02:46:46.914Z,80.94
2019-06-01T02:51:52.248Z,82.00
2019-06-01T02:56:57.950Z,82.28
2019-06-01T03:02:08.773Z,82.96
2019-06-01T03:07:11.827Z,83.36
2019-06-01T03:12:19.770Z,82.83
2019-06-01T03:17:25.415Z,82.80
2019-06-01T03:22:32.774Z,80.93
2019-06-01T03:27:40.040Z,81.21
2019-06-01T03:32:45.784Z,81.51
2019-06-01T03:37:51.267Z,82.53
2019-06-01T03:42:56.937Z,83.12
2019-06-01T03:48:02.590Z,82.98
2019-06-01T03:53:07.951Z,82.73
2019-06-01T03:58:13.565Z,81.44
2019-06-01T04:03:18.796Z,80.95
2019-06-01T04:08:24.031Z,81.55
2019-06-01T04:13:29.636Z,82.51
2019-06-01T04:18:34.943Z,82.61
2019-06-01T04:23:40.301Z,82.90
2019-06-01T04:28:45.630Z,82.59
2019-06-01T04:33:52.389Z,82.46
2019-06-01T04:38:57.641Z,82.44
2019-06-01T04:44:03.784Z,82.79
2019-06-01T04:49:10.536Z,83.06
2019-06-01T04:54:16.137Z,82.69
2019-06-01T04:59:21.459Z,81.73
2019-06-01T05:04:26.759Z,81.46
2019-06-01T05:09:32.040Z,82.33
2019-06-01T05:14:37.308Z,82.56
2019-06-01T05:19:42.647Z,81.79
2019-06-01T05:24:47.945Z,81.14
2019-06-01T05:29:53.450Z,80.71
2019-06-01T05:34:58.963Z,80.05
2019-06-01T05:40:04.620Z,79.34
2019-06-01T05:45:13.012Z,77.92
2019-06-01T05:50:20.551Z,77.71
2019-06-01T05:55:25.855Z,77.19
2019-06-01T06:00:42.664Z,75.84
2019-06-01T06:05:47.903Z,75.31
2019-06-01T06:10:53.546Z,74.38
2019-06-01T06:15:59.223Z,74.11
2019-06-01T06:21:04.764Z,72.63
2019-06-01T06:26:10.177Z,72.33
2019-06-01T06:31:15.489Z,70.67
2019-06-01T06:36:21.783Z,69.45
2019-06-01T06:41:27.093Z,69.03
2019-06-01T06:46:33.367Z,68.09
2019-06-01T06:51:38.598Z,67.34
2019-06-01T06:56:43.906Z,66.06
2019-06-01T07:01:51.855Z,65.38
2019-06-01T07:06:57.411Z,64.53
2019-06-01T07:12:03.683Z,64.22
2019-06-01T07:17:09.374Z,63.33
2019-06-01T07:22:16.943Z,63.34
2019-06-01T07:27:22.025Z,60.44
2019-06-01T07:32:28.657Z,60.37
2019-06-01T07:37:34.317Z,59.83
2019-06-01T07:42:39.629Z,60.14
2019-06-01T07:47:45.068Z,59.91
2019-06-01T07:52:50.437Z,59.85
2019-06-01T07:57:55.721Z,60.19
2019-06-01T08:03:01.065Z,58.73
2019-06-01T08:08:06.430Z,57.34
2019-06-01T08:13:12.005Z,56.56
2019-06-01T08:18:17.412Z,57.89
2019-06-01T08:23:24.116Z,57.33
2019-06-01T08:28:30.876Z,55.75
2019-06-01T08:33:36.279Z,55.03
2019-06-01T08:38:42.577Z,56.59
2019-06-01T08:43:47.989Z,56.61
2019-06-01T08:48:53.299Z,55.17
2019-06-01T08:54:00.886Z,54.83
2019-06-01T08:59:06.239Z,53.86
2019-06-01T09:04:11.507Z,52.26
2019-06-01T09:09:17.155Z,53.27
2019-06-01T09:14:31.700Z,52.63
2019-06-01T09:19:37.626Z,53.51
2019-06-01T09:24:45.383Z,53.44
2019-06-01T09:29:52.075Z,53.14
2019-06-01T09:34:57.702Z,52.37
2019-06-01T09:40:03.311Z,48.96
2019-06-01T09:45:09.864Z,49.55
2019-06-01T09:50:15.470Z,50.49
2019-06-01T09:55:21.338Z,49.37
2019-06-01T10:00:28.263Z,49.73
2019-06-01T10:05:34.837Z,48.12
2019-06-01T10:10:40.515Z,48.14
2019-06-01T10:15:46.537Z,48.64
2019-06-01T10:20:51.841Z,49.20
2019-06-01T10:25:57.306Z,48.28
2019-06-01T10:31:02.945Z,47.51
2019-06-01T10:36:19.964Z,47.98
2019-06-01T10:41:15.280Z,46.82
2019-06-01T10:46:22.148Z,48.11
2019-06-01T10:51:27.646Z,49.33
2019-06-01T10:59:00.507Z,49.22
2019-06-01T11:04:04.076Z,47.89
2019-06-01T11:09:10.477Z,48.47
2019-06-01T11:14:15.726Z,47.60
2019-06-01T11:19:21.220Z,46.69
2019-06-01T11:24:26.505Z,45.62
2019-06-01T11:29:31.846Z,45.12
2019-06-01T11:34:38.337Z,47.00
2019-06-01T11:39:44.895Z,45.03
2019-06-01T11:44:50.115Z,44.79
2019-06-01T11:49:55.368Z,46.25
2019-06-01T11:55:00.598Z,46.06
2019-06-01T12:00:09.422Z,45.21
2019-06-01T12:05:15.091Z,44.66
2019-06-01T12:10:20.324Z,42.88
2019-06-01T12:15:26.702Z,42.65
2019-06-01T12:20:32.526Z,39.45
2019-06-01T12:25:38.222Z,40.99
2019-06-01T12:30:43.827Z,42.82
2019-06-01T12:35:49.120Z,39.46
2019-06-01T12:40:54.402Z,36.60
2019-06-01T12:46:07.168Z,37.96
2019-06-01T12:51:07.042Z,39.65
2019-06-01T12:58:52.819Z,37.11
2019-06-01T13:03:58.524Z,39.68
2019-06-01T13:09:05.788Z,38.97
2019-06-01T13:14:11.173Z,36.02
2019-06-01T13:19:16.466Z,35.35
2019-06-01T13:24:21.797Z,33.93
2019-06-01T13:29:27.369Z,33.29
2019-06-01T13:34:34.125Z,31.40
2019-06-01T13:39:39.838Z,29.12
2019-06-01T13:44:45.490Z,31.18
2019-06-01T13:49:51.881Z,29.68
2019-06-01T13:54:57.426Z,29.18
2019-06-01T14:00:02.689Z,28.72
2019-06-01T14:05:08.138Z,28.13
2019-06-01T14:10:14.285Z,27.11
2019-06-01T14:15:20.188Z,26.08
2019-06-01T14:20:25.594Z,25.48
2019-06-01T14:25:31.201Z,25.53
2019-06-01T14:30:36.780Z,25.81
2019-06-01T14:35:42.128Z,24.27
2019-06-01T14:40:47.462Z,24.17
2019-06-01T14:45:54.199Z,25.08
2019-06-01T14:50:59.882Z,23.96
2019-06-01T14:56:06.258Z,23.58
2019-06-01T15:01:11.769Z,22.98
2019-06-01T15:06:20.574Z,23.64
2019-06-01T15:11:24.570Z,23.09
2019-06-01T15:16:29.911Z,23.58
2019-06-01T15:21:35.203Z,22.58
2019-06-01T15:26:41.683Z,23.45
2019-06-01T15:31:46.960Z,22.87
2019-06-01T15:36:53.518Z,23.03
2019-06-01T15:41:59.203Z,23.30
2019-06-01T15:47:05.164Z,24.39
2019-06-01T15:52:10.378Z,25.38
2019-06-01T15:57:15.631Z,24.87
2019-06-01T16:02:20.950Z,26.50
2019-06-01T16:07:26.638Z,27.06
2019-06-01T16:12:31.968Z,28.58
2019-06-01T16:17:37.346Z,30.36
2019-06-01T16:22:44.735Z,33.43
2019-06-01T16:27:50.341Z,34.05
2019-06-01T16:32:56.491Z,34.28
2019-06-01T16:38:02.865Z,35.78
2019-06-01T16:43:08.794Z,37.64
2019-06-01T16:48:14.232Z,36.61
2019-06-01T16:53:19.547Z,36.73
2019-06-01T16:58:25.158Z,37.50
2019-06-01T17:03:30.864Z,38.85
2019-06-01T17:08:36.209Z,38.82
2019-06-01T17:13:41.578Z,40.32
2019-06-01T17:18:47.790Z,38.78
2019-06-01T17:23:53.118Z,38.78
2019-06-01T17:29:00.057Z,39.31
2019-06-01T17:34:06.582Z,40.45
2019-06-01T17:39:12.299Z,41.08
2019-06-01T17:44:18.635Z,41.49
2019-06-01T17:49:24.033Z,42.99
2019-06-01T17:54:30.345Z,42.90
2019-06-01T17:59:35.641Z,43.30
2019-06-01T18:04:41.757Z,42.21
2019-06-01T18:09:47.343Z,42.50
2019-06-01T18:14:53.685Z,42.82
2019-06-01T18:19:59.285Z,43.25
2019-06-01T18:25:04.892Z,45.82
2019-06-01T18:30:11.062Z,45.71
2019-06-01T18:35:19.664Z,45.33
2019-06-01T18:40:25.403Z,45.86
2019-06-01T18:45:31.267Z,47.00
2019-06-01T18:50:36.639Z,49.41
2019-06-01T18:55:41.930Z,49.11
2019-06-01T19:00:52.979Z,50.20
2019-06-01T19:05:58.420Z,51.48
2019-06-01T19:11:03.670Z,52.74
2019-06-01T19:16:10.074Z,53.79
2019-06-01T19:21:15.343Z,56.03
2019-06-01T19:26:20.610Z,56.72
2019-06-01T19:31:25.960Z,57.59
2019-06-01T19:36:31.920Z,58.85
2019-06-01T19:41:44.717Z,59.34
2019-06-01T19:46:45.643Z,59.39
2019-06-01T19:51:50.958Z,59.53
2019-06-01T19:56:56.828Z,60.17
2019-06-01T20:02:02.575Z,60.70
2019-06-01T20:07:11.003Z,60.87
2019-06-01T20:12:18.557Z,61.49
2019-06-01T20:17:26.359Z,62.53
2019-06-01T20:22:31.607Z,62.26
2019-06-01T20:27:37.425Z,63.32
2019-06-01T20:32:43.195Z,63.54
2019-06-01T20:37:48.520Z,64.47
2019-06-01T20:42:53.790Z,65.67
2019-06-01T20:47:59.073Z,66.45
2019-06-01T20:53:05.569Z,66.81
2019-06-01T20:58:13.790Z,67.75
2019-06-01T21:03:19.777Z,67.58
2019-06-01T21:08:24.996Z,68.24
2019-06-01T21:13:30.305Z,68.39
2019-06-01T21:18:36.031Z,68.08
2019-06-01T21:23:42.671Z,68.09
2019-06-01T21:28:48.083Z,68.29
2019-06-01T21:33:53.792Z,68.82
2019-06-01T21:38:59.181Z,70.32
2019-06-01T21:44:04.813Z,72.40
2019-06-01T21:49:10.391Z,71.41
2019-06-01T21:57:22.351Z,70.82
2019-06-01T22:02:27.968Z,70.89
2019-06-01T22:07:33.268Z,70.57
2019-06-01T22:12:38.597Z,70.25
2019-06-01T22:17:44.257Z,70.31
2019-06-01T22:22:49.553Z,71.51
2019-06-01T22:27:55.117Z,71.49
2019-06-01T22:33:01.170Z,72.52
2019-06-01T22:38:06.510Z,74.75
2019-06-01T22:43:11.827Z,74.39
2019-06-01T22:48:17.102Z,72.57
2019-06-01T22:53:22.410Z,73.35
2019-06-01T22:58:27.789Z,73.84
2019-06-01T23:03:33.113Z,73.53
2019-06-01T23:08:38.895Z,73.38
2019-06-01T23:13:53.290Z,73.60
2019-06-01T23:18:52.834Z,74.18
2019-06-01T23:23:58.474Z,74.34
2019-06-01T23:29:03.997Z,73.98
2019-06-01T23:34:09.914Z,74.48
2019-06-01T23:39:15.480Z,76.08
2019-06-01T23:44:22.607Z,76.04
2019-06-01T23:49:29.239Z,76.00
2019-06-01T23:54:35.008Z,75.53
